Terminal Aerodrome Forecast
Issued by NWS Tampa Bay Area, FL

Home | Current Version | Previous Version | Text Only | Print | Product List | Glossary On
Versions: 1 2 3 4 5 6 7 8 9 10 11 12 13 14 15 16 17
976
FTUS42 KTBW 222357 AAA
TAFFMY
TAF AMD
KFMY 222357Z 2300/2324 24011KT P6SM VCTS SCT025CB SCT250
      TEMPO 2300/2301 VRB15G25KT 3SM TSRA
     FM230100 21007KT P6SM SCT050 SCT250
     FM230400 15005KT P6SM FEW030 SCT250
     FM231300 19011KT P6SM SCT030 SCT250
     FM231600 21015G22KT P6SM SCT030 BKN250=

USA.gov is the U.S. government's official web portal to all federal, state and local government web resources and services.